createdAt,value
2019-04-26T00:00:11.967Z,76.0815
2019-04-26T00:01:15.995Z,76.2905
2019-04-26T00:02:19.355Z,76.0525
2019-04-26T00:03:22.295Z,76.1990
2019-04-26T00:04:25.378Z,76.1135
2019-04-26T00:05:34.408Z,76.0861
2019-04-26T00:06:36.310Z,76.0723
2019-04-26T00:07:39.317Z,75.9884
2019-04-26T00:08:42.281Z,76.1852
2019-04-26T00:09:45.301Z,76.2737
2019-04-26T00:10:48.307Z,76.2829
2019-04-26T00:11:51.334Z,76.4431
2019-04-26T00:12:54.282Z,76.6339
2019-04-26T00:13:57.291Z,76.7681
2019-04-26T00:15:00.282Z,76.9406
2019-04-26T00:16:03.372Z,77.0840
2019-04-26T00:17:06.344Z,76.8139
2019-04-26T00:18:10.222Z,76.9009
2019-04-26T00:19:14.328Z,77.1466
2019-04-26T00:20:17.292Z,77.1618
2019-04-26T00:21:20.351Z,77.2213
2019-04-26T00:22:23.294Z,77.1893
2019-04-26T00:23:26.303Z,77.2290
2019-04-26T00:24:29.268Z,77.3892
2019-04-26T00:25:32.295Z,77.4777
2019-04-26T00:26:34.341Z,77.5189
2019-04-26T00:27:37.306Z,77.0962
2019-04-26T00:28:40.324Z,77.1847
2019-04-26T00:29:43.316Z,76.7758
2019-04-26T00:30:46.358Z,76.7575
2019-04-26T00:31:49.332Z,76.5972
2019-04-26T00:32:52.297Z,76.8582
2019-04-26T00:33:54.291Z,76.6491
2019-04-26T00:34:57.281Z,76.5484
2019-04-26T00:36:00.344Z,76.3287
2019-04-26T00:37:03.305Z,76.5103
2019-04-26T00:38:06.335Z,76.5759
2019-04-26T00:39:09.262Z,76.3104
2019-04-26T00:40:13.239Z,76.2264
2019-04-26T00:41:18.407Z,76.1624
2019-04-26T00:42:21.363Z,76.0815
2019-04-26T00:43:24.300Z,76.1913
2019-04-26T00:44:27.318Z,76.1501
2019-04-26T00:45:30.284Z,76.2325
2019-04-26T00:46:33.306Z,76.2814
2019-04-26T00:47:36.339Z,76.2829
2019-04-26T00:48:39.287Z,76.0708
2019-04-26T00:49:43.751Z,76.2951
2019-04-26T00:50:47.279Z,76.0433
2019-04-26T00:51:50.306Z,76.4782
2019-04-26T00:52:53.419Z,76.0586
2019-04-26T00:53:56.280Z,76.1868
2019-04-26T00:54:59.294Z,76.2676
2019-04-26T00:56:02.282Z,75.9533
2019-04-26T00:57:05.335Z,76.2081
2019-04-26T00:58:08.309Z,76.3470
2019-04-26T00:59:11.311Z,76.0800
2019-04-26T01:00:15.391Z,76.2585
2019-04-26T01:01:19.327Z,76.4004
2019-04-26T01:02:22.765Z,76.7025
2019-04-26T01:03:26.334Z,76.3058
2019-04-26T01:04:29.333Z,76.2737
2019-04-26T01:05:32.272Z,76.5301
2019-04-26T01:06:35.333Z,76.6293
2019-04-26T01:07:38.351Z,76.6613
2019-04-26T01:08:41.333Z,76.6293
2019-04-26T01:09:44.313Z,76.9833
2019-04-26T01:10:47.318Z,77.2351
2019-04-26T01:11:50.295Z,77.4502
2019-04-26T01:12:53.339Z,78.5443
2019-04-26T01:13:56.275Z,79.0021
2019-04-26T01:14:59.326Z,79.5270
2019-04-26T01:16:02.277Z,79.2523
2019-04-26T01:17:05.295Z,79.7986
2019-04-26T01:18:08.342Z,80.0076
2019-04-26T01:19:11.290Z,80.8820
2019-04-26T01:20:14.353Z,81.4633
2019-04-26T01:21:18.434Z,82.3758
2019-04-26T01:22:21.317Z,83.3051
2019-04-26T01:23:25.090Z,84.0055
2019-04-26T01:24:28.335Z,84.1413
2019-04-26T01:25:31.286Z,83.7568
2019-04-26T01:26:34.270Z,84.9561
2019-04-26T01:27:37.305Z,84.5502
2019-04-26T01:28:40.291Z,85.2033
2019-04-26T01:29:43.323Z,85.7450
2019-04-26T01:30:46.292Z,86.3035
2019-04-26T01:31:49.294Z,87.3960
2019-04-26T01:32:52.334Z,86.9032
2019-04-26T01:33:55.290Z,87.4327
2019-04-26T01:34:58.318Z,86.4683
2019-04-26T01:36:12.105Z,87.7409
2019-04-26T01:37:08.285Z,87.5166
2019-04-26T01:38:11.329Z,88.1346
2019-04-26T01:39:14.286Z,87.8538
2019-04-26T01:40:17.310Z,87.8721
2019-04-26T01:41:21.289Z,87.7989
2019-04-26T01:42:26.313Z,87.7318
2019-04-26T01:43:29.329Z,88.5420
2019-04-26T01:44:34.304Z,88.3955
2019-04-26T01:45:37.303Z,87.7668
2019-04-26T01:46:40.297Z,87.4800
2019-04-26T01:47:42.274Z,87.4846
2019-04-26T01:48:45.337Z,88.3680
2019-04-26T01:49:48.272Z,88.4321
2019-04-26T01:50:51.305Z,87.9881
2019-04-26T01:51:54.295Z,88.4276
2019-04-26T01:52:57.306Z,88.0644
2019-04-26T01:54:00.308Z,88.1468
2019-04-26T01:55:03.312Z,87.4983
2019-04-26T01:56:06.284Z,88.0980
2019-04-26T01:57:09.300Z,87.8141
2019-04-26T01:58:12.307Z,87.5517
2019-04-26T01:59:15.324Z,87.9194
2019-04-26T02:00:18.336Z,87.9469
2019-04-26T02:01:22.321Z,88.0049
2019-04-26T02:02:26.314Z,88.4825
2019-04-26T02:03:29.847Z,88.6519
2019-04-26T02:04:33.347Z,88.8670
2019-04-26T02:05:36.266Z,89.0501
2019-04-26T02:06:39.302Z,88.2445
2019-04-26T02:07:42.306Z,88.9265
2019-04-26T02:08:45.346Z,88.5466
2019-04-26T02:09:48.333Z,89.6941
2019-04-26T02:10:51.344Z,88.7053
2019-04-26T02:11:54.322Z,88.4596
2019-04-26T02:12:57.293Z,88.5237
2019-04-26T02:14:00.311Z,88.7831
2019-04-26T02:15:03.318Z,89.2409
2019-04-26T02:16:06.306Z,89.2561
2019-04-26T02:17:09.290Z,89.7215
2019-04-26T02:18:12.282Z,89.8909
2019-04-26T02:19:15.307Z,89.5705
2019-04-26T02:20:18.355Z,89.6727
2019-04-26T02:21:21.281Z,89.3111
2019-04-26T02:22:24.493Z,89.6544
2019-04-26T02:23:27.922Z,89.5903
2019-04-26T02:24:32.163Z,89.9062
2019-04-26T02:25:35.301Z,90.0893
2019-04-26T02:26:38.289Z,89.3614
2019-04-26T02:27:41.327Z,89.5583
2019-04-26T02:28:44.278Z,89.2790
2019-04-26T02:29:47.361Z,88.8472
2019-04-26T02:30:50.305Z,88.7663
2019-04-26T02:31:53.432Z,89.4987
2019-04-26T02:32:56.337Z,89.5384
2019-04-26T02:33:59.303Z,88.5008
2019-04-26T02:35:02.360Z,88.5176
2019-04-26T02:36:05.293Z,89.2042
2019-04-26T02:37:08.317Z,89.3477
2019-04-26T02:38:11.349Z,89.0272
2019-04-26T02:39:14.291Z,90.1534
2019-04-26T02:40:17.439Z,90.3120
2019-04-26T02:41:20.286Z,90.3258
2019-04-26T02:42:23.316Z,90.4738
2019-04-26T02:43:28.094Z,89.4987
2019-04-26T02:44:34.481Z,89.0227
2019-04-26T02:45:38.314Z,89.2683
2019-04-26T02:46:41.286Z,88.9952
2019-04-26T02:47:44.311Z,89.1554
2019-04-26T02:48:47.308Z,89.3141
2019-04-26T02:49:50.338Z,88.8624
2019-04-26T02:50:53.384Z,88.6046
2019-04-26T02:51:56.356Z,89.2378
2019-04-26T02:52:59.271Z,89.1722
2019-04-26T02:54:02.364Z,89.3339
2019-04-26T02:55:05.301Z,89.7276
2019-04-26T02:56:08.371Z,89.8589
2019-04-26T02:57:11.295Z,90.0923
2019-04-26T02:58:14.310Z,89.3095
2019-04-26T02:59:16.315Z,90.0114
2019-04-26T03:00:19.291Z,90.0053
2019-04-26T03:01:22.333Z,89.8329
2019-04-26T03:02:25.311Z,89.9702
2019-04-26T03:03:29.837Z,90.0282
2019-04-26T03:04:34.625Z,89.9138
2019-04-26T03:05:39.685Z,90.0206
2019-04-26T03:06:43.318Z,90.0618
2019-04-26T03:07:46.288Z,90.0099
2019-04-26T03:08:49.332Z,90.1930
2019-04-26T03:09:52.309Z,89.9870
2019-04-26T03:10:54.312Z,90.1656
2019-04-26T03:11:57.325Z,90.6706
2019-04-26T03:13:00.323Z,90.6340
2019-04-26T03:14:03.294Z,90.5043
2019-04-26T03:15:13.715Z,90.7057
2019-04-26T03:16:14.305Z,90.6432
2019-04-26T03:17:17.341Z,90.6645
2019-04-26T03:18:20.337Z,91.1009
2019-04-26T03:19:23.301Z,91.3848
2019-04-26T03:20:26.307Z,91.6259
2019-04-26T03:21:31.979Z,92.4865
2019-04-26T03:22:36.670Z,92.3445
2019-04-26T03:23:52.828Z,91.7952
2019-04-26T03:24:48.752Z,91.3802
2019-04-26T03:25:52.313Z,91.2703
2019-04-26T03:26:55.341Z,91.9478
2019-04-26T03:27:58.305Z,92.3171
2019-04-26T03:29:01.291Z,92.3827
2019-04-26T03:30:18.663Z,93.0144
2019-04-26T03:31:12.279Z,93.4020
2019-04-26T03:32:16.583Z,93.5988
2019-04-26T03:33:20.406Z,94.1955
2019-04-26T03:34:23.289Z,94.4793
2019-04-26T03:35:26.291Z,94.8684
2019-04-26T03:36:29.329Z,94.9584
2019-04-26T03:37:34.146Z,94.9081
2019-04-26T03:38:39.681Z,95.1934
2019-04-26T03:39:44.376Z,95.1644
2019-04-26T03:40:47.305Z,95.0362
2019-04-26T03:41:50.299Z,95.1232
2019-04-26T03:42:53.297Z,95.5230
2019-04-26T03:43:56.321Z,94.9096
2019-04-26T03:44:59.380Z,94.2916
2019-04-26T03:46:02.318Z,93.5180
2019-04-26T03:47:05.291Z,94.1299
2019-04-26T03:48:08.329Z,94.5373
2019-04-26T03:49:11.274Z,94.4549
2019-04-26T03:50:14.306Z,94.9142
2019-04-26T03:51:17.313Z,94.9645
2019-04-26T03:52:20.290Z,95.1110
2019-04-26T03:53:23.356Z,94.8821
2019-04-26T03:54:26.271Z,95.0652
2019-04-26T03:55:29.319Z,95.3429
2019-04-26T03:56:32.314Z,94.9462
2019-04-26T03:57:36.909Z,94.8623
2019-04-26T03:58:41.924Z,95.6130
2019-04-26T03:59:46.320Z,95.9396
2019-04-26T04:00:49.343Z,96.1868
2019-04-26T04:01:52.298Z,96.3821
2019-04-26T04:02:55.357Z,96.1593
2019-04-26T04:03:58.267Z,96.0449
2019-04-26T04:05:01.321Z,96.1852
2019-04-26T04:06:04.281Z,96.1639
2019-04-26T04:07:07.323Z,96.5148
2019-04-26T04:08:10.334Z,96.7727
2019-04-26T04:09:13.317Z,96.6064
2019-04-26T04:10:16.288Z,96.7727
2019-04-26T04:11:19.265Z,96.7208
2019-04-26T04:12:22.410Z,96.7620
2019-04-26T04:13:25.330Z,96.9589
2019-04-26T04:14:28.376Z,96.6751
2019-04-26T04:15:31.328Z,96.7208
2019-04-26T04:16:34.325Z,96.7498
2019-04-26T04:17:39.010Z,96.6766
2019-04-26T04:18:45.435Z,96.9787
2019-04-26T04:19:48.297Z,97.1435
2019-04-26T04:20:51.340Z,97.3083
2019-04-26T04:21:54.372Z,97.6379
2019-04-26T04:22:57.280Z,97.2671
2019-04-26T04:24:00.392Z,97.3816
2019-04-26T04:25:02.323Z,97.3404
2019-04-26T04:26:05.299Z,97.4182
2019-04-26T04:27:08.320Z,97.7050
2019-04-26T04:28:11.312Z,97.8943
2019-04-26T04:29:14.366Z,97.8241
2019-04-26T04:30:17.349Z,97.9065
2019-04-26T04:31:20.328Z,97.8347
2019-04-26T04:32:25.330Z,97.7615
2019-04-26T04:33:28.306Z,97.9065
2019-04-26T04:34:31.295Z,97.9202
2019-04-26T04:35:34.309Z,97.8607
2019-04-26T04:36:37.291Z,97.9721
2019-04-26T04:37:54.533Z,97.9614
2019-04-26T04:38:49.529Z,98.0865
2019-04-26T04:39:53.484Z,98.1537
2019-04-26T04:40:56.349Z,98.1079
2019-04-26T04:41:59.288Z,98.2101
2019-04-26T04:43:02.468Z,98.0545
2019-04-26T04:44:05.360Z,98.1491
2019-04-26T04:45:08.318Z,98.0346
2019-04-26T04:46:11.364Z,98.2727
2019-04-26T04:47:23.792Z,98.3063
2019-04-26T04:48:22.314Z,98.2635
2019-04-26T04:49:25.350Z,98.3734
2019-04-26T04:50:27.301Z,98.3505
2019-04-26T04:51:30.341Z,98.3475
2019-04-26T04:52:33.323Z,98.2681
2019-04-26T04:53:36.300Z,97.5219
2019-04-26T04:54:39.354Z,97.2763
2019-04-26T04:55:43.510Z,96.9558
2019-04-26T04:56:47.854Z,97.6638
2019-04-26T04:57:50.394Z,97.3571
2019-04-26T04:58:53.329Z,96.9421
2019-04-26T04:59:56.373Z,96.6995
2019-04-26T05:00:59.308Z,96.7529
2019-04-26T05:02:02.338Z,96.7269
2019-04-26T05:03:05.280Z,96.9604
2019-04-26T05:04:08.301Z,97.5555
2019-04-26T05:05:11.319Z,97.7661
2019-04-26T05:06:14.320Z,97.7829
2019-04-26T05:07:17.345Z,97.2580
2019-04-26T05:08:20.310Z,97.4624
2019-04-26T05:09:23.263Z,97.2702
2019-04-26T05:10:26.330Z,97.1069
2019-04-26T05:11:29.269Z,97.6043
2019-04-26T05:12:32.315Z,97.5921
2019-04-26T05:13:35.296Z,97.7295
2019-04-26T05:14:38.313Z,97.9156
2019-04-26T05:15:41.306Z,97.8103
2019-04-26T05:16:44.986Z,97.6226
2019-04-26T05:17:49.476Z,97.5418
2019-04-26T05:18:51.334Z,97.7340
2019-04-26T05:19:54.872Z,97.6043
2019-04-26T05:20:58.304Z,96.9467
2019-04-26T05:22:01.322Z,96.8505
2019-04-26T05:23:04.389Z,96.6201
2019-04-26T05:24:07.269Z,96.9375
2019-04-26T05:25:10.323Z,96.6766
2019-04-26T05:26:13.369Z,96.8490
2019-04-26T05:27:16.351Z,96.3561
2019-04-26T05:28:19.287Z,96.8261
2019-04-26T05:29:21.335Z,97.3266
2019-04-26T05:30:24.393Z,97.2763
2019-04-26T05:31:27.324Z,97.5174
2019-04-26T05:32:30.271Z,97.3220
2019-04-26T05:33:33.290Z,97.5967
2019-04-26T05:34:36.326Z,97.8424
2019-04-26T05:35:39.355Z,97.9767
2019-04-26T05:36:42.343Z,97.8561
2019-04-26T05:37:45.302Z,97.8302
2019-04-26T05:38:49.248Z,97.5326
2019-04-26T05:39:53.202Z,97.3571
2019-04-26T05:40:56.345Z,97.6776
2019-04-26T05:41:59.266Z,97.4990
2019-04-26T05:43:02.307Z,97.4853
2019-04-26T05:44:05.320Z,97.6516
2019-04-26T05:45:08.287Z,97.5906
2019-04-26T05:46:11.309Z,97.7417
2019-04-26T05:47:14.291Z,97.9065
2019-04-26T05:48:17.310Z,97.9889
2019-04-26T05:49:20.319Z,98.7121
2019-04-26T05:50:23.348Z,98.9288
2019-04-26T05:51:26.304Z,99.0326
2019-04-26T05:52:29.318Z,99.1806
2019-04-26T05:53:32.283Z,99.3164
2019-04-26T05:54:35.267Z,99.3301
2019-04-26T05:55:38.351Z,99.2996
2019-04-26T05:56:41.339Z,99.3271
2019-04-26T05:57:44.318Z,99.2798
2019-04-26T05:58:47.300Z,99.2065
2019-04-26T05:59:50.626Z,99.1394
2019-04-26T06:00:53.925Z,99.2996
2019-04-26T06:01:57.312Z,99.1836
2019-04-26T06:03:01.247Z,99.1333
2019-04-26T06:04:04.310Z,98.4192
2019-04-26T06:05:07.374Z,98.2422
2019-04-26T06:06:10.346Z,98.2864
2019-04-26T06:07:13.297Z,97.7050
2019-04-26T06:08:16.303Z,97.3495
2019-04-26T06:09:19.301Z,96.8322
2019-04-26T06:10:21.346Z,96.6537
2019-04-26T06:11:24.334Z,97.0550
2019-04-26T06:12:27.306Z,97.0932
2019-04-26T06:13:30.319Z,97.5326
2019-04-26T06:14:33.310Z,96.9284
2019-04-26T06:15:36.334Z,97.1420
2019-04-26T06:16:39.308Z,97.3251
2019-04-26T06:17:42.297Z,96.4935
2019-04-26T06:18:45.303Z,95.3246
2019-04-26T06:19:48.359Z,94.8363
2019-04-26T06:20:51.192Z,94.9447
2019-04-26T06:21:55.873Z,94.9264
2019-04-26T06:23:00.478Z,94.9828
2019-04-26T06:24:03.344Z,94.9508
2019-04-26T06:25:06.294Z,95.4482
2019-04-26T06:26:09.375Z,95.7061
2019-04-26T06:27:14.288Z,95.3445
2019-04-26T06:28:17.327Z,95.0546
2019-04-26T06:29:19.311Z,94.1985
2019-04-26T06:30:23.387Z,94.6242
2019-04-26T06:31:25.323Z,94.5052
2019-04-26T06:32:28.391Z,95.4253
2019-04-26T06:33:31.264Z,96.4645
2019-04-26T06:34:34.277Z,96.7620
2019-04-26T06:35:37.365Z,96.2097
2019-04-26T06:36:40.270Z,96.4935
2019-04-26T06:37:43.296Z,96.7803
2019-04-26T06:38:45.326Z,97.0275
2019-04-26T06:39:47.536Z,97.3709
2019-04-26T06:40:49.636Z,97.2808
2019-04-26T06:41:52.341Z,97.2396
2019-04-26T06:42:56.187Z,97.2442
2019-04-26T06:44:00.356Z,96.7803
2019-04-26T06:45:03.307Z,97.0474
2019-04-26T06:46:06.299Z,97.0749
2019-04-26T06:47:09.324Z,97.3526
2019-04-26T06:48:12.335Z,97.2656
2019-04-26T06:49:15.315Z,97.4121
2019-04-26T06:50:18.303Z,97.8973
2019-04-26T06:51:24.546Z,97.7600
2019-04-26T06:52:28.316Z,97.7157
2019-04-26T06:53:31.295Z,97.9248
2019-04-26T06:54:34.303Z,97.7234
2019-04-26T06:55:37.282Z,97.9309
2019-04-26T06:56:40.367Z,98.1826
2019-04-26T06:57:43.269Z,97.9446
2019-04-26T06:58:46.314Z,98.1674
2019-04-26T06:59:49.330Z,98.2223
2019-04-26T07:00:54.362Z,98.0941
2019-04-26T07:01:57.979Z,98.1674
2019-04-26T07:03:03.554Z,98.2834
2019-04-26T07:04:07.311Z,98.5519
2019-04-26T07:05:10.380Z,98.3658
2019-04-26T07:06:13.319Z,98.3291
2019-04-26T07:07:16.336Z,98.0499
2019-04-26T07:08:19.320Z,98.0499
2019-04-26T07:09:22.310Z,98.0987
2019-04-26T07:10:25.311Z,98.0911
2019-04-26T07:11:28.343Z,98.1231
2019-04-26T07:12:30.360Z,98.1720
2019-04-26T07:13:33.279Z,97.9248
2019-04-26T07:14:36.328Z,97.8698
2019-04-26T07:15:39.293Z,98.1826
2019-04-26T07:16:42.278Z,98.3688
2019-04-26T07:17:45.305Z,98.3383
2019-04-26T07:18:48.303Z,98.3658
2019-04-26T07:19:51.287Z,98.1231
2019-04-26T07:20:54.315Z,97.6410
2019-04-26T07:21:56.374Z,97.5463
2019-04-26T07:22:59.382Z,97.7142
2019-04-26T07:24:02.889Z,97.4594
2019-04-26T07:25:07.369Z,97.4273
2019-04-26T07:26:10.334Z,97.3159
2019-04-26T07:27:13.326Z,97.5769
2019-04-26T07:28:16.344Z,98.0087
2019-04-26T07:29:19.348Z,98.1674
2019-04-26T07:30:22.356Z,98.5061
2019-04-26T07:31:26.395Z,98.4787
2019-04-26T07:32:29.309Z,98.8144
2019-04-26T07:33:32.353Z,98.9776
2019-04-26T07:34:35.302Z,98.9822
2019-04-26T07:35:38.304Z,99.1440
2019-04-26T07:36:41.299Z,99.1577
2019-04-26T07:37:44.326Z,98.9273
2019-04-26T07:38:47.334Z,99.0982
2019-04-26T07:39:50.290Z,99.1989
2019-04-26T07:40:53.338Z,98.8312
2019-04-26T07:41:57.298Z,98.4604
2019-04-26T07:42:59.414Z,98.2238
2019-04-26T07:44:03.547Z,97.8531
2019-04-26T07:45:07.544Z,98.1811
2019-04-26T07:46:10.664Z,98.5306
2019-04-26T07:47:15.347Z,98.7259
2019-04-26T07:48:18.338Z,98.8876
2019-04-26T07:49:21.303Z,98.9151
2019-04-26T07:50:24.331Z,98.9792
2019-04-26T07:51:27.284Z,99.2157
2019-04-26T07:52:30.355Z,99.1302
2019-04-26T07:53:33.310Z,99.1531
2019-04-26T07:54:36.309Z,99.3225
2019-04-26T07:55:39.301Z,99.5087
2019-04-26T07:56:42.313Z,99.3545
2019-04-26T07:57:45.355Z,98.8052
2019-04-26T07:58:48.301Z,98.7076
2019-04-26T07:59:51.358Z,98.4924
2019-04-26T08:00:54.282Z,98.7762
2019-04-26T08:01:57.324Z,98.7549
2019-04-26T08:03:00.331Z,98.6893
2019-04-26T08:04:03.988Z,98.7076
2019-04-26T08:05:09.417Z,98.7121
2019-04-26T08:06:12.303Z,98.6862
2019-04-26T08:07:15.407Z,98.7762
2019-04-26T08:08:18.368Z,98.4146
2019-04-26T08:09:26.996Z,98.5290
2019-04-26T08:10:29.285Z,98.3612
2019-04-26T08:11:32.320Z,98.4802
2019-04-26T08:12:35.308Z,98.5245
2019-04-26T08:13:38.342Z,98.3886
2019-04-26T08:14:41.276Z,98.1308
2019-04-26T08:15:44.311Z,98.1811
2019-04-26T08:16:47.281Z,98.3246
2019-04-26T08:17:50.350Z,98.1048
2019-04-26T08:18:52.386Z,98.3154
2019-04-26T08:19:57.526Z,98.2147
2019-04-26T08:21:02.572Z,97.7462
2019-04-26T08:22:17.879Z,97.7783
2019-04-26T08:23:38.107Z,98.1186
2019-04-26T08:24:27.865Z,97.9995
2019-04-26T08:25:31.325Z,97.8103
2019-04-26T08:26:34.306Z,97.6196
2019-04-26T08:27:37.344Z,97.7005
2019-04-26T08:28:40.304Z,97.8164
2019-04-26T08:29:43.321Z,98.5290
2019-04-26T08:30:46.355Z,99.0204
2019-04-26T08:31:49.288Z,98.6343
2019-04-26T08:32:52.336Z,98.4833
2019-04-26T08:33:56.349Z,98.5672
2019-04-26T08:35:02.305Z,98.4985
2019-04-26T08:36:08.724Z,98.2910
2019-04-26T08:37:12.663Z,98.3368
2019-04-26T08:38:21.968Z,98.3841
2019-04-26T08:39:29.622Z,98.2330
2019-04-26T08:40:31.509Z,98.4466
2019-04-26T08:41:38.986Z,98.3978
2019-04-26T08:42:42.337Z,98.5031
2019-04-26T08:43:45.281Z,98.5382
2019-04-26T08:44:50.909Z,98.6816
2019-04-26T08:46:02.816Z,98.3093
2019-04-26T08:47:02.324Z,98.0774
2019-04-26T08:48:05.325Z,98.0438
2019-04-26T08:49:09.543Z,98.1277
2019-04-26T08:50:13.697Z,98.1231
2019-04-26T08:51:20.491Z,98.5245
2019-04-26T08:52:25.285Z,98.8724
2019-04-26T08:53:27.380Z,98.9593
2019-04-26T08:54:32.565Z,98.7854
2019-04-26T08:55:36.351Z,98.5855
2019-04-26T08:56:39.312Z,98.8129
2019-04-26T08:57:42.272Z,98.9593
2019-04-26T08:58:45.340Z,99.0204
2019-04-26T08:59:48.295Z,98.7076
2019-04-26T09:00:51.347Z,98.6221
2019-04-26T09:01:54.330Z,98.9563
2019-04-26T09:02:57.336Z,98.7366
2019-04-26T09:04:00.303Z,98.7915
2019-04-26T09:05:03.347Z,99.0463
2019-04-26T09:06:06.317Z,99.1165
2019-04-26T09:07:09.321Z,99.1531
2019-04-26T09:08:12.312Z,99.0890
2019-04-26T09:09:18.184Z,98.8922
2019-04-26T09:10:23.340Z,99.0555
2019-04-26T09:11:33.472Z,99.1943
2019-04-26T09:12:34.312Z,99.0433
2019-04-26T09:13:37.294Z,98.8952
2019-04-26T09:14:40.357Z,98.7091
2019-04-26T09:15:43.313Z,99.0005
2019-04-26T09:16:50.420Z,98.9639
2019-04-26T09:17:54.319Z,98.8785
2019-04-26T09:18:59.583Z,99.0616
2019-04-26T09:20:07.684Z,98.8540
2019-04-26T09:21:13.422Z,98.7488
2019-04-26T09:22:22.529Z,98.8876
2019-04-26T09:23:39.362Z,99.1714
2019-04-26T09:24:35.355Z,99.2355
2019-04-26T09:25:39.301Z,99.0738
2019-04-26T09:26:46.257Z,99.1073
2019-04-26T09:27:50.313Z,99.2706
2019-04-26T09:28:56.588Z,99.4125
2019-04-26T09:30:00.642Z,99.0784
2019-04-26T09:31:07.364Z,99.1714
2019-04-26T09:32:10.281Z,99.3301
2019-04-26T09:33:13.367Z,99.4690
2019-04-26T09:34:16.346Z,99.7559
2019-04-26T09:35:19.309Z,99.7238
2019-04-26T09:36:22.343Z,99.7055
2019-04-26T09:37:25.295Z,99.6551
2019-04-26T09:38:28.353Z,99.3072
2019-04-26T09:39:31.300Z,99.1699
2019-04-26T09:40:34.329Z,99.0097
2019-04-26T09:41:37.323Z,98.9868
2019-04-26T09:42:41.048Z,99.2569
2019-04-26T09:43:44.302Z,99.2020
2019-04-26T09:44:46.345Z,99.3484
2019-04-26T09:45:49.327Z,99.4400
2019-04-26T09:46:52.889Z,99.1943
2019-04-26T09:47:57.306Z,99.0799
2019-04-26T09:49:03.056Z,99.2126
2019-04-26T09:50:11.268Z,99.4003
2019-04-26T09:51:16.276Z,99.2981
2019-04-26T09:52:19.340Z,99.5499
2019-04-26T09:53:22.281Z,99.5590
2019-04-26T09:54:25.333Z,99.4263
2019-04-26T09:55:35.285Z,99.3042
2019-04-26T09:56:36.360Z,99.0692
2019-04-26T09:57:39.348Z,99.0692
2019-04-26T09:58:41.328Z,99.0097
2019-04-26T09:59:44.316Z,99.1348
2019-04-26T10:00:48.617Z,99.0738
2019-04-26T10:01:55.352Z,99.1058
2019-04-26T10:03:01.322Z,99.2447
2019-04-26T10:04:04.325Z,99.2889
2019-04-26T10:05:08.144Z,99.0234
2019-04-26T10:06:14.308Z,98.6770
2019-04-26T10:07:17.443Z,98.9181
2019-04-26T10:08:20.347Z,99.0829
2019-04-26T10:09:23.381Z,99.1974
2019-04-26T10:10:26.297Z,99.4003
2019-04-26T10:11:29.322Z,99.2081
2019-04-26T10:12:32.348Z,99.0890
2019-04-26T10:13:35.358Z,99.0021
2019-04-26T10:14:38.292Z,99.4003
2019-04-26T10:15:41.339Z,99.3347
2019-04-26T10:16:44.317Z,99.3942
2019-04-26T10:17:50.149Z,99.0234
2019-04-26T10:18:54.448Z,98.9151
2019-04-26T10:19:57.329Z,98.9960
2019-04-26T10:21:00.342Z,98.9364
2019-04-26T10:22:05.332Z,98.7686
2019-04-26T10:23:08.324Z,98.6633
2019-04-26T10:24:11.315Z,98.9197
2019-04-26T10:25:16.899Z,98.8037
2019-04-26T10:26:23.314Z,98.5763
2019-04-26T10:27:28.316Z,98.9044
2019-04-26T10:28:31.314Z,99.0066
2019-04-26T10:29:33.314Z,98.9471
2019-04-26T10:30:38.358Z,98.8998
2019-04-26T10:31:43.331Z,98.6313
2019-04-26T10:32:46.353Z,98.5351
2019-04-26T10:33:49.299Z,98.5489
2019-04-26T10:34:52.331Z,98.8129
2019-04-26T10:35:56.617Z,98.6770
2019-04-26T10:37:05.518Z,98.6343
2019-04-26T10:38:09.345Z,98.8678
2019-04-26T10:39:12.298Z,98.9334
2019-04-26T10:40:15.340Z,98.7274
2019-04-26T10:41:18.277Z,98.4756
2019-04-26T10:42:21.312Z,97.9385
2019-04-26T10:43:24.320Z,97.9934
2019-04-26T10:44:27.304Z,98.0301
2019-04-26T10:45:30.290Z,98.3413
2019-04-26T10:46:33.324Z,98.4100
2019-04-26T10:47:38.416Z,98.1903
2019-04-26T10:48:45.598Z,97.8469
2019-04-26T10:49:50.297Z,97.6410
2019-04-26T10:50:53.320Z,98.0163
2019-04-26T10:51:56.323Z,97.8561
2019-04-26T10:52:59.313Z,97.7615
2019-04-26T10:54:01.644Z,98.1033
2019-04-26T10:55:08.309Z,97.9171
2019-04-26T10:56:11.350Z,98.0438
2019-04-26T10:57:14.278Z,98.4924
2019-04-26T10:58:17.337Z,98.3505
2019-04-26T10:59:22.645Z,98.3291
2019-04-26T11:00:26.340Z,98.1918
2019-04-26T11:01:29.278Z,98.0026
2019-04-26T11:02:32.291Z,97.8439
2019-04-26T11:03:35.335Z,98.2040
2019-04-26T11:04:41.565Z,97.9858
2019-04-26T11:05:49.335Z,97.3175
2019-04-26T11:06:54.292Z,97.3709
2019-04-26T11:07:57.341Z,97.3541
2019-04-26T11:08:59.337Z,97.3983
2019-04-26T11:10:02.989Z,97.0932
2019-04-26T11:11:06.270Z,96.9467
2019-04-26T11:12:09.368Z,97.2290
2019-04-26T11:13:11.317Z,97.5814
2019-04-26T11:14:18.347Z,97.3632
2019-04-26T11:15:22.312Z,97.0886
2019-04-26T11:16:25.281Z,97.3434
2019-04-26T11:17:28.321Z,97.6333
2019-04-26T11:18:31.296Z,97.8241
2019-04-26T11:19:35.525Z,97.5586
2019-04-26T11:20:41.362Z,97.3632
2019-04-26T11:21:47.324Z,97.2931
2019-04-26T11:22:50.326Z,96.9467
2019-04-26T11:23:53.322Z,97.0642
2019-04-26T11:24:56.304Z,97.2122
2019-04-26T11:26:01.703Z,97.6226
2019-04-26T11:27:09.702Z,98.0026
2019-04-26T11:28:17.110Z,97.7325
2019-04-26T11:29:24.992Z,97.3861
2019-04-26T11:30:30.344Z,97.0596
2019-04-26T11:31:33.296Z,96.5515
2019-04-26T11:32:36.867Z,96.3928
2019-04-26T11:33:44.935Z,96.5103
2019-04-26T11:34:48.315Z,96.4462
2019-04-26T11:35:51.362Z,96.9787
2019-04-26T11:36:54.298Z,97.2839
2019-04-26T11:37:57.335Z,97.6959
2019-04-26T11:39:01.381Z,97.7707
2019-04-26T11:40:10.205Z,98.1170
2019-04-26T11:41:15.352Z,96.9467
2019-04-26T11:42:18.331Z,97.5006
2019-04-26T11:43:21.330Z,97.4273
2019-04-26T11:44:27.451Z,97.6837
2019-04-26T11:45:31.370Z,97.0871
2019-04-26T11:46:44.162Z,96.8780
2019-04-26T11:47:54.309Z,97.4395
2019-04-26T11:48:58.958Z,97.8988
2019-04-26T11:49:58.408Z,97.4731
2019-04-26T11:51:01.295Z,96.8093
2019-04-26T11:52:04.304Z,96.7727
2019-04-26T11:53:10.200Z,97.3037
2019-04-26T11:54:17.127Z,97.3907
2019-04-26T11:55:25.372Z,97.5509
2019-04-26T11:56:30.316Z,97.7050
2019-04-26T11:57:33.340Z,97.2335
2019-04-26T11:58:36.292Z,96.7575
2019-04-26T11:59:39.329Z,96.9268
2019-04-26T12:00:42.305Z,96.9924
2019-04-26T12:01:45.347Z,97.6654
2019-04-26T12:02:50.793Z,97.4441
2019-04-26T12:03:55.691Z,96.0677
2019-04-26T12:05:02.286Z,95.6878
2019-04-26T12:06:05.318Z,95.4498
2019-04-26T12:07:08.369Z,95.1431
2019-04-26T12:08:11.281Z,95.1980
2019-04-26T12:09:14.320Z,94.9187
2019-04-26T12:10:17.299Z,94.5754
2019-04-26T12:11:26.134Z,95.0698
2019-04-26T12:12:28.296Z,94.8119
2019-04-26T12:13:31.367Z,95.3124
2019-04-26T12:14:34.403Z,95.4986
2019-04-26T12:15:38.981Z,96.7819
2019-04-26T12:16:49.333Z,96.8353
2019-04-26T12:17:58.829Z,96.1685
2019-04-26T12:19:01.320Z,96.4065
2019-04-26T12:20:04.299Z,96.5789
2019-04-26T12:21:07.326Z,94.9722
2019-04-26T12:22:09.993Z,94.2458
2019-04-26T12:23:20.318Z,93.3898
2019-04-26T12:24:21.288Z,94.3358
2019-04-26T12:25:24.359Z,93.8338
2019-04-26T12:26:27.313Z,94.5602
2019-04-26T12:27:30.882Z,94.4686
2019-04-26T12:28:36.245Z,95.0515
2019-04-26T12:29:44.184Z,95.4864
2019-04-26T12:30:54.023Z,93.5760
2019-04-26T12:31:58.346Z,94.1024
2019-04-26T12:33:01.374Z,93.3120
2019-04-26T12:34:04.304Z,93.4844
2019-04-26T12:35:07.316Z,93.6263
2019-04-26T12:36:13.410Z,93.1746
2019-04-26T12:37:19.994Z,92.8939
2019-04-26T12:38:28.364Z,93.9437
2019-04-26T12:39:36.504Z,93.2601
2019-04-26T12:40:42.438Z,93.9025
2019-04-26T12:41:48.315Z,93.3349
2019-04-26T12:42:51.369Z,94.2077
2019-04-26T12:43:54.434Z,94.5983
2019-04-26T12:45:01.350Z,92.8847
2019-04-26T12:46:04.331Z,91.9234
2019-04-26T12:47:07.299Z,91.7403
2019-04-26T12:48:12.461Z,91.4168
2019-04-26T12:49:20.373Z,90.3304